createdAt,value
2023-05-08T00:02:10.414Z,65.20
2023-05-08T00:04:37.347Z,65.20
2023-05-08T00:07:04.399Z,65.20
2023-05-08T00:09:31.239Z,65.00
2023-05-08T00:11:58.568Z,65.10
2023-05-08T00:14:25.422Z,65.10
2023-05-08T00:16:54.023Z,65.20
2023-05-08T00:19:20.917Z,65.40
2023-05-08T00:21:48.079Z,65.40
2023-05-08T00:24:15.025Z,65.20
2023-05-08T00:26:45.165Z,65.20
2023-05-08T00:29:15.704Z,65.10
2023-05-08T00:31:42.555Z,65.20
2023-05-08T00:34:09.380Z,65.40
2023-05-08T00:36:36.160Z,65.50
2023-05-08T00:39:04.101Z,65.50
2023-05-08T00:41:30.955Z,65.40
2023-05-08T00:43:57.769Z,65.20
2023-05-08T00:46:24.596Z,65.40
2023-05-08T00:48:52.028Z,65.30
2023-05-08T00:51:18.822Z,65.40
2023-05-08T00:53:45.720Z,65.50
2023-05-08T00:56:16.855Z,65.40
2023-05-08T00:58:44.034Z,65.30
2023-05-08T01:01:12.371Z,65.30
2023-05-08T01:03:39.428Z,65.30
2023-05-08T01:06:07.007Z,65.20
2023-05-08T01:08:33.984Z,65.30
2023-05-08T01:11:06.930Z,65.30
2023-05-08T01:14:01.115Z,65.50
2023-05-08T01:16:44.622Z,65.40
2023-05-08T01:19:40.944Z,65.60
2023-05-08T01:22:31.679Z,65.50
2023-05-08T01:25:23.337Z,65.40
2023-05-08T01:28:04.702Z,65.20
2023-05-08T01:30:37.431Z,65.30
2023-05-08T01:33:46.280Z,65.40
2023-05-08T01:36:24.381Z,65.30
2023-05-08T01:39:02.275Z,65.40
2023-05-08T01:41:30.626Z,65.50
2023-05-08T01:44:13.833Z,65.50
2023-05-08T01:46:40.803Z,65.70
2023-05-08T01:49:13.017Z,65.70
2023-05-08T01:51:45.118Z,65.70
2023-05-08T01:54:16.111Z,65.70
2023-05-08T01:56:44.831Z,65.70
2023-05-08T01:59:16.043Z,65.70
2023-05-08T02:01:42.942Z,65.70
2023-05-08T02:04:09.914Z,65.70
2023-05-08T02:06:37.579Z,65.60
2023-05-08T02:09:04.578Z,65.70
2023-05-08T02:11:32.051Z,65.50
2023-05-08T02:14:01.637Z,65.60
2023-05-08T02:16:28.949Z,65.70
2023-05-08T02:18:58.018Z,65.70
2023-05-08T02:21:24.853Z,65.70
2023-05-08T02:23:51.674Z,65.70
2023-05-08T02:26:21.375Z,65.70
2023-05-08T02:28:48.746Z,65.60
2023-05-08T02:31:15.556Z,65.70
2023-05-08T02:33:42.621Z,65.90
2023-05-08T02:36:09.803Z,65.80
2023-05-08T02:38:40.471Z,65.80
2023-05-08T02:41:08.006Z,65.90
2023-05-08T02:43:34.910Z,65.80
2023-05-08T02:46:11.076Z,66.50
2023-05-08T02:48:58.628Z,65.60
2023-05-08T02:51:37.431Z,65.80
2023-05-08T02:54:25.623Z,65.80
2023-05-08T02:57:18.473Z,65.90
2023-05-08T02:59:56.720Z,65.90
2023-05-08T03:02:41.397Z,65.90
2023-05-08T03:05:26.159Z,65.90
2023-05-08T03:07:55.212Z,65.90
2023-05-08T03:10:22.373Z,66.00
2023-05-08T03:12:50.049Z,66.10
2023-05-08T03:15:33.367Z,66.20
2023-05-08T03:18:20.705Z,66.30
2023-05-08T03:20:49.001Z,66.30
2023-05-08T03:23:17.699Z,66.30
2023-05-08T03:25:44.552Z,66.30
2023-05-08T03:28:11.412Z,66.40
2023-05-08T03:30:38.614Z,66.50
2023-05-08T03:33:07.709Z,66.60
2023-05-08T03:35:39.355Z,66.70
2023-05-08T03:38:09.318Z,67.60
2023-05-08T03:40:36.916Z,66.90
2023-05-08T03:43:05.109Z,66.90
2023-05-08T03:45:32.452Z,66.90
2023-05-08T03:47:59.271Z,66.80
2023-05-08T03:50:27.126Z,66.80
2023-05-08T03:52:54.288Z,66.70
2023-05-08T03:55:21.591Z,66.70
2023-05-08T03:57:55.678Z,66.70
2023-05-08T04:00:34.711Z,66.80
2023-05-08T04:03:21.978Z,66.90
2023-05-08T04:06:28.722Z,66.90
2023-05-08T04:09:24.973Z,66.90
2023-05-08T04:12:31.992Z,66.90
2023-05-08T04:15:14.809Z,66.90
2023-05-08T04:17:48.085Z,66.90
2023-05-08T04:20:17.491Z,67.00
2023-05-08T04:22:44.353Z,67.10
2023-05-08T04:25:11.620Z,67.00
2023-05-08T04:27:39.299Z,67.00
2023-05-08T04:30:07.054Z,67.00
2023-05-08T04:32:35.086Z,67.00
2023-05-08T04:35:02.718Z,67.10
2023-05-08T04:37:33.144Z,67.10
2023-05-08T04:40:01.278Z,67.00
2023-05-08T04:42:28.791Z,67.00
2023-05-08T04:44:55.714Z,67.10
2023-05-08T04:47:25.935Z,67.10
2023-05-08T04:49:52.778Z,67.10
2023-05-08T04:52:19.625Z,67.00
2023-05-08T04:54:46.463Z,66.80
2023-05-08T04:57:14.659Z,67.00
2023-05-08T04:59:41.680Z,67.10
2023-05-08T05:02:09.216Z,67.20
2023-05-08T05:04:36.759Z,68.00
2023-05-08T05:07:03.862Z,67.20
2023-05-08T05:09:31.370Z,67.20
2023-05-08T05:11:58.427Z,67.30
2023-05-08T05:14:25.300Z,67.40
2023-05-08T05:16:52.736Z,67.30
2023-05-08T05:19:20.979Z,67.20
2023-05-08T05:21:47.911Z,67.10
2023-05-08T05:24:14.788Z,67.20
2023-05-08T05:26:41.855Z,67.40
2023-05-08T05:29:08.714Z,67.30
2023-05-08T05:31:37.806Z,67.30
2023-05-08T05:34:04.832Z,67.50
2023-05-08T05:36:32.578Z,67.40
2023-05-08T05:39:00.066Z,67.50
2023-05-08T05:41:27.790Z,67.50
2023-05-08T05:43:55.400Z,67.50
2023-05-08T05:46:29.084Z,67.60
2023-05-08T05:48:55.928Z,67.60
2023-05-08T05:51:22.729Z,68.50
2023-05-08T05:53:49.573Z,67.80
2023-05-08T05:56:16.444Z,67.80
2023-05-08T05:58:45.296Z,67.70
2023-05-08T06:01:12.384Z,67.60
2023-05-08T06:03:39.488Z,67.50
2023-05-08T06:06:07.489Z,67.40
2023-05-08T06:08:34.653Z,67.30
2023-05-08T06:11:01.916Z,67.10
2023-05-08T06:13:29.164Z,67.30
2023-05-08T06:15:59.081Z,67.20
2023-05-08T06:18:26.255Z,67.10
2023-05-08T06:20:59.177Z,67.10
2023-05-08T06:23:27.061Z,67.20
2023-05-08T06:25:54.490Z,67.30
2023-05-08T06:28:24.015Z,67.30
2023-05-08T06:30:50.943Z,67.20
2023-05-08T06:33:18.548Z,67.40
2023-05-08T06:35:48.727Z,67.40
2023-05-08T06:38:15.602Z,67.40
2023-05-08T06:40:43.965Z,67.40
2023-05-08T06:43:11.798Z,67.20
2023-05-08T06:45:39.122Z,67.10
2023-05-08T06:48:07.728Z,66.90
2023-05-08T06:50:37.411Z,67.00
2023-05-08T06:53:04.426Z,66.90
2023-05-08T06:55:31.295Z,66.90
2023-05-08T06:57:58.212Z,66.90
2023-05-08T07:00:25.291Z,66.70
2023-05-08T07:02:52.372Z,66.80
2023-05-08T07:05:21.145Z,66.80
2023-05-08T07:07:48.383Z,66.90
2023-05-08T07:10:16.795Z,67.00
2023-05-08T07:12:50.038Z,66.70
2023-05-08T07:15:25.294Z,66.40
2023-05-08T07:17:53.623Z,66.70
2023-05-08T07:20:21.630Z,66.40
2023-05-08T07:22:48.621Z,66.10
2023-05-08T07:25:17.010Z,66.00
2023-05-08T07:27:44.173Z,65.60
2023-05-08T07:30:11.565Z,65.00
2023-05-08T07:32:41.526Z,65.10
2023-05-08T07:35:11.575Z,65.20
2023-05-08T07:37:39.694Z,65.00
2023-05-08T07:40:07.424Z,64.90
2023-05-08T07:42:44.053Z,65.00
2023-05-08T07:45:12.832Z,65.10
2023-05-08T07:47:48.239Z,65.00
2023-05-08T07:50:16.067Z,65.20
2023-05-08T07:52:42.900Z,64.80
2023-05-08T07:55:11.808Z,65.20
2023-05-08T07:57:42.651Z,64.80
2023-05-08T08:00:11.637Z,64.30
2023-05-08T08:02:39.551Z,64.40
2023-05-08T08:05:06.787Z,64.20
2023-05-08T08:07:33.593Z,63.80
2023-05-08T08:10:01.118Z,63.70
2023-05-08T08:12:30.809Z,63.50
2023-05-08T08:14:57.997Z,63.10
2023-05-08T08:17:26.953Z,62.50
2023-05-08T08:19:55.677Z,62.30
2023-05-08T08:22:22.642Z,62.30
2023-05-08T08:24:49.495Z,62.60
2023-05-08T08:27:16.421Z,62.30
2023-05-08T08:29:45.350Z,61.50
2023-05-08T08:32:12.385Z,61.00
2023-05-08T08:34:39.602Z,61.40
2023-05-08T08:37:07.022Z,62.00
2023-05-08T08:39:37.190Z,61.30
2023-05-08T08:42:04.594Z,60.50
2023-05-08T08:44:31.461Z,60.80
2023-05-08T08:46:58.683Z,60.20
2023-05-08T08:49:33.105Z,60.10
2023-05-08T08:52:03.978Z,59.90
2023-05-08T08:54:34.760Z,59.70
2023-05-08T08:57:03.892Z,59.60
2023-05-08T08:59:30.682Z,58.90
2023-05-08T09:02:00.210Z,59.30
2023-05-08T09:04:29.665Z,58.90
2023-05-08T09:07:01.412Z,58.60
2023-05-08T09:09:29.328Z,58.80
2023-05-08T09:11:56.138Z,58.70
2023-05-08T09:14:25.834Z,59.00
2023-05-08T09:16:56.041Z,59.00
2023-05-08T09:19:26.242Z,58.90
2023-05-08T09:21:55.084Z,58.90
2023-05-08T09:24:23.055Z,58.90
2023-05-08T09:26:51.205Z,59.00
2023-05-08T09:29:22.324Z,58.50
2023-05-08T09:31:51.615Z,58.60
2023-05-08T09:34:33.774Z,58.60
2023-05-08T09:37:07.542Z,58.20
2023-05-08T09:39:35.020Z,58.30
2023-05-08T09:42:06.702Z,58.00
2023-05-08T09:44:53.881Z,57.90
2023-05-08T09:47:22.945Z,57.80
2023-05-08T09:50:03.772Z,57.90
2023-05-08T09:52:31.124Z,57.60
2023-05-08T09:55:02.209Z,56.20
2023-05-08T09:57:32.621Z,55.60
2023-05-08T10:00:06.271Z,55.40
2023-05-08T10:02:33.816Z,55.30
2023-05-08T10:05:00.944Z,55.20
2023-05-08T10:07:35.052Z,55.30
2023-05-08T10:10:05.921Z,55.30
2023-05-08T10:12:33.205Z,55.20
2023-05-08T10:15:00.134Z,55.30
2023-05-08T10:17:32.732Z,55.40
2023-05-08T10:20:01.275Z,55.20
2023-05-08T10:22:31.337Z,55.20
2023-05-08T10:24:59.051Z,55.20
2023-05-08T10:27:55.312Z,55.20
2023-05-08T10:30:25.041Z,55.40
2023-05-08T10:32:55.403Z,55.50
2023-05-08T10:35:25.673Z,55.80
2023-05-08T10:37:53.285Z,55.90
2023-05-08T10:40:21.498Z,56.00
2023-05-08T10:42:51.658Z,56.10
2023-05-08T10:45:18.804Z,56.10
2023-05-08T10:48:14.234Z,56.10
2023-05-08T10:50:47.561Z,56.10
2023-05-08T10:53:16.907Z,56.10
2023-05-08T10:55:46.296Z,56.00
2023-05-08T10:58:30.425Z,55.80
2023-05-08T11:01:10.599Z,55.90
2023-05-08T11:03:46.668Z,55.90
2023-05-08T11:06:13.909Z,55.80
2023-05-08T11:08:48.766Z,56.00
2023-05-08T11:11:33.536Z,55.90
2023-05-08T11:14:10.399Z,56.20
2023-05-08T11:16:59.875Z,55.90
2023-05-08T11:19:27.130Z,56.00
2023-05-08T11:22:33.326Z,56.10
2023-05-08T11:25:10.910Z,55.90
2023-05-08T11:27:48.712Z,55.90
2023-05-08T11:30:20.088Z,56.00
2023-05-08T11:33:15.573Z,56.20
2023-05-08T11:35:54.252Z,56.00
2023-05-08T11:38:25.697Z,55.90
2023-05-08T11:40:56.814Z,55.80
2023-05-08T11:43:33.686Z,55.90
2023-05-08T11:46:04.832Z,55.60
2023-05-08T11:48:32.457Z,55.40
2023-05-08T11:51:00.068Z,55.40
2023-05-08T11:53:29.596Z,55.30
2023-05-08T11:55:56.415Z,55.30
2023-05-08T11:58:23.340Z,55.00
2023-05-08T12:00:50.399Z,55.10
2023-05-08T12:03:19.854Z,55.20
2023-05-08T12:05:49.983Z,55.20
2023-05-08T12:08:17.627Z,55.20
2023-05-08T12:10:47.383Z,55.20
2023-05-08T12:13:20.733Z,55.30
2023-05-08T12:15:53.416Z,55.20
2023-05-08T12:18:23.316Z,55.00
2023-05-08T12:20:54.854Z,54.80
2023-05-08T12:23:24.798Z,54.50
2023-05-08T12:25:55.449Z,54.20
2023-05-08T12:28:24.049Z,54.40
2023-05-08T12:30:53.185Z,54.20
2023-05-08T12:33:20.193Z,54.20
2023-05-08T12:35:47.045Z,54.10
2023-05-08T12:38:14.166Z,53.60
2023-05-08T12:40:45.483Z,53.30
2023-05-08T12:43:12.520Z,53.20
2023-05-08T12:45:40.701Z,52.70
2023-05-08T12:48:10.283Z,53.00
2023-05-08T12:50:47.014Z,53.10
2023-05-08T12:53:16.285Z,53.00
2023-05-08T12:55:57.806Z,52.80
2023-05-08T12:58:27.227Z,52.20
2023-05-08T13:00:54.926Z,51.80
2023-05-08T13:03:29.125Z,51.70
2023-05-08T13:05:59.738Z,51.60
2023-05-08T13:08:32.041Z,51.70
2023-05-08T13:10:59.132Z,51.40
2023-05-08T13:13:27.650Z,51.20
2023-05-08T13:15:56.366Z,51.10
2023-05-08T13:18:27.241Z,51.10
2023-05-08T13:20:55.007Z,51.00
2023-05-08T13:23:22.104Z,51.00
2023-05-08T13:25:49.053Z,50.90
2023-05-08T13:28:17.194Z,50.80
2023-05-08T13:30:44.065Z,51.00
2023-05-08T13:33:10.952Z,51.20
2023-05-08T13:35:37.782Z,51.20
2023-05-08T13:38:07.597Z,51.20
2023-05-08T13:40:35.432Z,51.40
2023-05-08T13:43:02.914Z,51.60
2023-05-08T13:45:31.638Z,51.10
2023-05-08T13:48:02.687Z,51.20
2023-05-08T13:50:30.604Z,51.20
2023-05-08T13:53:00.061Z,51.40
2023-05-08T13:55:26.938Z,51.00
2023-05-08T13:57:53.772Z,51.10
2023-05-08T14:00:20.889Z,50.90
2023-05-08T14:02:50.032Z,50.50
2023-05-08T14:05:19.161Z,50.70
2023-05-08T14:07:46.718Z,51.10
2023-05-08T14:10:14.814Z,51.40
2023-05-08T14:12:42.081Z,51.20
2023-05-08T14:15:11.921Z,51.40
2023-05-08T14:17:42.606Z,51.50
2023-05-08T14:20:11.690Z,51.60
2023-05-08T14:22:39.147Z,51.40
2023-05-08T14:25:07.934Z,51.80
2023-05-08T14:27:35.472Z,51.80
2023-05-08T14:30:02.350Z,51.80
2023-05-08T14:32:29.482Z,51.70
2023-05-08T14:34:58.495Z,52.00
2023-05-08T14:37:26.152Z,51.90
2023-05-08T14:39:54.249Z,51.80
2023-05-08T14:42:23.664Z,51.90
2023-05-08T14:44:51.373Z,52.20
2023-05-08T14:47:18.380Z,52.10
2023-05-08T14:49:47.876Z,52.20
2023-05-08T14:52:15.030Z,51.80
2023-05-08T14:54:42.065Z,52.00
2023-05-08T14:57:08.968Z,52.30
2023-05-08T14:59:37.091Z,52.30
2023-05-08T15:02:08.496Z,52.10
2023-05-08T15:04:40.880Z,52.00
2023-05-08T15:07:08.660Z,51.90
2023-05-08T15:09:35.510Z,51.90
2023-05-08T15:12:04.100Z,51.90
2023-05-08T15:14:30.948Z,51.90
2023-05-08T15:16:57.802Z,52.00
2023-05-08T15:19:24.690Z,51.90
2023-05-08T15:21:51.502Z,51.80
2023-05-08T15:24:18.351Z,51.70
2023-05-08T15:26:45.186Z,52.40
2023-05-08T15:29:12.247Z,51.70
2023-05-08T15:31:41.161Z,51.80
2023-05-08T15:34:08.185Z,51.70
2023-05-08T15:36:35.642Z,52.00
2023-05-08T15:39:04.143Z,51.80
2023-05-08T15:41:31.057Z,51.80
2023-05-08T15:43:57.821Z,51.60
2023-05-08T15:46:24.628Z,51.50
2023-05-08T15:48:51.534Z,51.60
2023-05-08T15:51:18.386Z,51.70
2023-05-08T15:53:45.295Z,51.80
2023-05-08T15:56:13.336Z,51.80
2023-05-08T15:58:41.926Z,51.80
2023-05-08T16:01:08.766Z,51.80
2023-05-08T16:03:35.815Z,52.00
2023-05-08T16:06:03.741Z,52.00
2023-05-08T16:08:39.577Z,52.10
2023-05-08T16:11:06.678Z,52.20
2023-05-08T16:13:33.473Z,52.00
2023-05-08T16:16:06.231Z,52.20
2023-05-08T16:18:33.315Z,52.20
2023-05-08T16:21:00.451Z,52.20
2023-05-08T16:23:31.645Z,52.10
2023-05-08T16:25:58.573Z,52.30
2023-05-08T16:28:25.402Z,52.70
2023-05-08T16:30:52.265Z,52.60
2023-05-08T16:33:21.965Z,52.60
2023-05-08T16:35:49.418Z,52.70
2023-05-08T16:38:17.147Z,52.80
2023-05-08T16:40:45.926Z,52.80
2023-05-08T16:43:16.193Z,52.70
2023-05-08T16:45:43.040Z,52.60
2023-05-08T16:48:10.389Z,52.50
2023-05-08T16:50:38.168Z,52.60
2023-05-08T16:53:06.470Z,52.50
2023-05-08T16:55:33.289Z,52.50
2023-05-08T16:58:00.161Z,52.60
2023-05-08T17:00:27.292Z,52.90
2023-05-08T17:02:54.522Z,53.30
2023-05-08T17:05:21.500Z,53.60
2023-05-08T17:07:48.496Z,54.00
2023-05-08T17:10:15.675Z,54.20
2023-05-08T17:12:44.925Z,54.40
2023-05-08T17:15:12.013Z,54.50
2023-05-08T17:17:42.384Z,54.60
2023-05-08T17:20:15.804Z,54.90
2023-05-08T17:22:42.883Z,55.30
2023-05-08T17:25:09.989Z,55.40
2023-05-08T17:27:38.815Z,55.70
2023-05-08T17:30:06.901Z,56.00
2023-05-08T17:32:33.775Z,56.20
2023-05-08T17:35:03.137Z,56.50
2023-05-08T17:37:30.435Z,56.60
2023-05-08T17:39:59.433Z,56.60
2023-05-08T17:42:26.976Z,56.60
2023-05-08T17:44:53.861Z,56.70
2023-05-08T17:47:22.329Z,56.80
2023-05-08T17:49:51.499Z,57.00
2023-05-08T17:52:22.010Z,57.10
2023-05-08T17:54:51.223Z,57.40
2023-05-08T17:57:18.112Z,57.40
2023-05-08T17:59:45.250Z,57.60
2023-05-08T18:02:13.995Z,57.70
2023-05-08T18:04:42.140Z,57.70
2023-05-08T18:07:08.986Z,57.70
2023-05-08T18:09:35.914Z,57.80
2023-05-08T18:12:04.264Z,57.80
2023-05-08T18:14:34.347Z,57.80
2023-05-08T18:17:01.385Z,57.90
2023-05-08T18:19:28.237Z,58.00
2023-05-08T18:21:55.036Z,58.00
2023-05-08T18:24:21.949Z,58.00
2023-05-08T18:26:50.586Z,58.00
2023-05-08T18:29:19.629Z,58.00
2023-05-08T18:31:47.381Z,58.00
2023-05-08T18:34:14.214Z,58.20
2023-05-08T18:36:41.051Z,58.40
2023-05-08T18:39:08.688Z,58.40
2023-05-08T18:41:39.494Z,58.60
2023-05-08T18:44:06.709Z,58.50
2023-05-08T18:46:34.597Z,58.60
2023-05-08T18:49:01.426Z,58.70
2023-05-08T18:51:28.225Z,58.70
2023-05-08T18:53:57.294Z,58.70
2023-05-08T18:56:24.967Z,58.70
2023-05-08T18:58:52.149Z,58.70
2023-05-08T19:01:24.654Z,58.80
2023-05-08T19:03:51.857Z,58.90
2023-05-08T19:06:18.767Z,59.00
2023-05-08T19:08:47.248Z,59.10
2023-05-08T19:11:16.970Z,59.50
2023-05-08T19:13:46.424Z,59.80
2023-05-08T19:16:14.398Z,60.00
2023-05-08T19:18:45.675Z,61.10
2023-05-08T19:21:13.275Z,60.30
2023-05-08T19:23:40.293Z,60.50
2023-05-08T19:26:07.251Z,60.80
2023-05-08T19:28:34.836Z,61.00
2023-05-08T19:31:06.026Z,61.30
2023-05-08T19:33:33.877Z,61.40
2023-05-08T19:36:02.520Z,61.50
2023-05-08T19:38:29.398Z,61.60
2023-05-08T19:40:57.536Z,61.70
2023-05-08T19:43:26.192Z,61.60
2023-05-08T19:45:53.115Z,61.90
2023-05-08T19:48:20.431Z,61.90
2023-05-08T19:50:47.550Z,62.00
2023-05-08T19:53:15.329Z,62.10
2023-05-08T19:55:42.442Z,62.20
2023-05-08T19:58:13.186Z,62.20
2023-05-08T20:00:41.068Z,62.30
2023-05-08T20:03:08.483Z,62.30
2023-05-08T20:05:35.385Z,62.50
2023-05-08T20:08:02.150Z,62.70
2023-05-08T20:10:28.925Z,62.90
2023-05-08T20:12:55.812Z,63.10
2023-05-08T20:15:25.850Z,63.20
2023-05-08T20:17:52.982Z,63.30
2023-05-08T20:20:19.868Z,63.40
2023-05-08T20:22:46.645Z,63.50
2023-05-08T20:25:13.437Z,63.60
2023-05-08T20:27:40.306Z,63.70
2023-05-08T20:30:07.626Z,63.90
2023-05-08T20:32:34.482Z,64.10
2023-05-08T20:35:03.580Z,64.10
2023-05-08T20:37:30.609Z,64.20
2023-05-08T20:39:59.142Z,64.40
2023-05-08T20:42:26.952Z,64.50
2023-05-08T20:44:53.723Z,64.40
2023-05-08T20:47:20.520Z,64.50
2023-05-08T20:49:47.352Z,64.70
2023-05-08T20:52:14.128Z,64.50
2023-05-08T20:54:41.161Z,64.70
2023-05-08T20:57:08.270Z,64.80
2023-05-08T20:59:35.399Z,64.90
2023-05-08T21:02:02.638Z,64.90
2023-05-08T21:04:29.694Z,64.90
2023-05-08T21:06:56.895Z,64.80
2023-05-08T21:09:23.728Z,64.90
2023-05-08T21:11:50.579Z,64.90
2023-05-08T21:14:17.448Z,65.00
2023-05-08T21:16:44.278Z,65.00
2023-05-08T21:19:13.969Z,65.10
2023-05-08T21:21:40.896Z,65.10
2023-05-08T21:24:07.830Z,65.30
2023-05-08T21:26:34.762Z,66.20
2023-05-08T21:29:04.561Z,65.40
2023-05-08T21:31:38.018Z,65.50
2023-05-08T21:34:04.872Z,65.50
2023-05-08T21:36:34.536Z,65.40
2023-05-08T21:39:03.140Z,65.50
2023-05-08T21:41:30.293Z,65.50
2023-05-08T21:43:57.181Z,65.40
2023-05-08T21:46:24.139Z,65.60
2023-05-08T21:48:52.232Z,65.60
2023-05-08T21:51:19.374Z,65.70
2023-05-08T21:53:46.164Z,65.70
2023-05-08T21:56:13.021Z,65.70
2023-05-08T21:58:39.824Z,65.80
2023-05-08T22:01:07.126Z,65.80
2023-05-08T22:03:34.218Z,66.00
2023-05-08T22:06:01.076Z,66.00
2023-05-08T22:08:30.797Z,65.90
2023-05-08T22:10:58.760Z,65.80
2023-05-08T22:13:25.973Z,65.70
2023-05-08T22:15:53.319Z,65.90
2023-05-08T22:18:20.185Z,65.80
2023-05-08T22:20:46.999Z,65.80
2023-05-08T22:23:13.810Z,65.80
2023-05-08T22:25:43.640Z,65.90
2023-05-08T22:28:10.515Z,65.90
2023-05-08T22:30:37.453Z,65.90
2023-05-08T22:33:04.360Z,66.00
2023-05-08T22:35:34.522Z,66.10
2023-05-08T22:38:01.816Z,66.00
2023-05-08T22:40:28.912Z,66.10
2023-05-08T22:42:58.770Z,66.00
2023-05-08T22:45:27.939Z,66.00
2023-05-08T22:47:55.637Z,66.20
2023-05-08T22:50:22.410Z,66.30
2023-05-08T22:52:49.275Z,66.30
2023-05-08T22:55:16.813Z,66.30
2023-05-08T22:57:43.906Z,66.30
2023-05-08T23:00:11.535Z,66.50
2023-05-08T23:02:39.534Z,66.50
2023-05-08T23:05:07.111Z,66.60
2023-05-08T23:07:33.902Z,66.70
2023-05-08T23:10:00.692Z,66.60
2023-05-08T23:12:27.485Z,66.80
2023-05-08T23:14:57.080Z,66.80
2023-05-08T23:17:23.979Z,66.80
2023-05-08T23:19:51.130Z,66.90
2023-05-08T23:22:18.036Z,66.80
2023-05-08T23:24:44.900Z,66.80
2023-05-08T23:27:12.191Z,67.10
2023-05-08T23:29:39.066Z,67.20
2023-05-08T23:32:05.970Z,67.40
2023-05-08T23:34:32.792Z,67.40
2023-05-08T23:37:02.078Z,67.40
2023-05-08T23:39:29.522Z,67.40
2023-05-08T23:41:56.577Z,67.30
2023-05-08T23:44:23.379Z,67.50
2023-05-08T23:46:50.412Z,67.50
2023-05-08T23:49:17.354Z,67.40
2023-05-08T23:51:44.665Z,67.30
2023-05-08T23:54:12.642Z,67.40
2023-05-08T23:56:39.427Z,67.50
2023-05-08T23:59:06.271Z,67.60
